Terminal Aerodrome Forecast
Issued by NWS Sioux Falls, SD

Home | Current Version | Previous Version | Text Only | Print | Product List | Glossary Off
Versions: 1 2 3 4 5 6 7 8 9 10 11 12 13 14 15 16 17 18 19 20 21 22 23 24 25 26 27 28 29 30 31 32 33 34 35

000
FTUS43 KFSD 290520
TAFSUX
TAF
KSUX 290520Z 2906/3006 33026G36KT P6SM OVC015
      TEMPO 2906/2907 5SM BR OVC009
     FM291400 33020G29KT P6SM BKN020
     FM292000 34016G23KT P6SM SCT025
     FM300000 34009KT P6SM FEW200=

USA.gov is the U.S. government's official web portal to all federal, state and local government web resources and services.